Time;durP1;ratioP1;P1;durP2;ratioP2;P2;SDS_P1;SDS_P2;PMS_P1;PMS_P2;Temp;Humidity;BMP_temperature;BMP_pressure;BME280_temperature;BME280_humidity;BME280_pressure;Samples;Min_cycle;Max_cycle;Signal;HPM_P1;HPM_P2
2021/09/09 00:00:18;;;;;;;13.52;9.05;;;;;;;;;;4930037;29;20016;-84
2021/09/09 00:02:43;;;;;;;13.68;8.68;;;;;;;;;;4924083;29;20769;-84
2021/09/09 00:05:09;;;;;;;15.55;8.15;;;;;;;;;;4931351;29;20040;-85
2021/09/09 00:07:35;;;;;;;12.60;9.63;;;;;;;;;;4914516;29;20488;-85
2021/09/09 00:10:00;;;;;;;13.32;8.70;;;;;;;;;;4943061;29;20572;-86
2021/09/09 00:12:25;;;;;;;13.05;8.48;;;;;;;;;;4930723;29;20502;-85
2021/09/09 00:14:51;;;;;;;14.90;8.77;;;;;;;;;;4931556;29;20028;-85
2021/09/09 00:17:16;;;;;;;13.15;8.50;;;;;;;;;;4929785;29;20027;-86
2021/09/09 00:19:41;;;;;;;17.33;8.90;;;;;;;;;;4930350;29;20031;-86
2021/09/09 00:22:07;;;;;;;15.85;8.75;;;;;;;;;;4928236;29;20020;-84
2021/09/09 00:24:32;;;;;;;13.98;9.07;;;;;;;;;;4931093;29;20482;-84
2021/09/09 00:26:57;;;;;;;12.67;7.63;;;;;;;;;;4929658;29;20023;-83
2021/09/09 00:29:25;;;;;;;12.93;9.20;;;;;;;;;;4931687;29;20023;-84
2021/09/09 00:31:51;;;;;;;13.00;9.10;;;;;;;;;;4934242;29;20323;-85
2021/09/09 00:34:16;;;;;;;14.18;9.18;;;;;;;;;;4933071;29;20119;-85
2021/09/09 00:36:41;;;;;;;13.07;8.20;;;;;;;;;;4929936;29;20028;-85
2021/09/09 00:39:07;;;;;;;13.95;8.93;;;;;;;;;;4934777;29;20024;-86
2021/09/09 00:41:33;;;;;;;12.85;8.00;;;;;;;;;;4934713;29;20474;-86
2021/09/09 00:43:59;;;;;;;16.23;8.05;;;;;;;;;;4935078;29;20087;-85
2021/09/09 00:46:24;;;;;;;14.95;9.02;;;;;;;;;;4933516;29;20023;-85
2021/09/09 00:48:51;;;;;;;16.05;8.27;;;;;;;;;;4933946;29;20371;-86
2021/09/09 00:51:16;;;;;;;12.73;9.02;;;;;;;;;;4935858;29;20099;-85
2021/09/09 00:53:42;;;;;;;14.88;8.50;;;;;;;;;;4933559;29;20032;-85
2021/09/09 00:56:08;;;;;;;12.52;8.02;;;;;;;;;;4934173;29;20024;-85
2021/09/09 00:58:33;;;;;;;13.57;9.27;;;;;;;;;;4932127;29;20397;-86
2021/09/09 01:00:59;;;;;;;13.10;9.30;;;;;;;;;;4918001;29;20434;-86
2021/09/09 01:03:24;;;;;;;15.43;9.35;;;;;;;;;;4916739;29;20027;-86
2021/09/09 01:05:50;;;;;;;12.70;8.40;;;;;;;;;;4929470;29;20062;-87
2021/09/09 01:08:15;;;;;;;18.83;9.00;;;;;;;;;;4932772;29;20554;-86
2021/09/09 01:10:40;;;;;;;12.97;8.37;;;;;;;;;;4926805;29;20031;-86
2021/09/09 01:13:09;;;;;;;13.73;8.73;;;;;;;;;;4930951;29;20319;-85
2021/09/09 01:15:41;;;;;;;14.05;8.02;;;;;;;;;;4916880;29;20023;-84
2021/09/09 01:18:10;;;;;;;15.52;10.13;;;;;;;;;;4931924;29;20401;-84
2021/09/09 01:20:35;;;;;;;14.57;8.50;;;;;;;;;;4932719;29;20036;-84
2021/09/09 01:23:01;;;;;;;16.30;8.77;;;;;;;;;;4934626;29;20083;-84
2021/09/09 01:25:26;;;;;;;11.70;9.32;;;;;;;;;;4934275;29;20302;-86
2021/09/09 01:27:51;;;;;;;12.57;9.13;;;;;;;;;;4933574;29;20520;-86
2021/09/09 01:30:17;;;;;;;14.77;9.10;;;;;;;;;;4933193;29;20032;-84
2021/09/09 01:32:42;;;;;;;13.67;8.87;;;;;;;;;;4928930;29;20040;-84
2021/09/09 01:35:07;;;;;;;13.73;8.07;;;;;;;;;;4932429;29;20775;-84
2021/09/09 01:37:32;;;;;;;15.32;9.48;;;;;;;;;;4932088;29;20028;-85
2021/09/09 01:39:58;;;;;;;16.63;8.53;;;;;;;;;;4933130;29;20027;-85
2021/09/09 01:42:23;;;;;;;13.73;8.40;;;;;;;;;;4930139;29;20028;-85
2021/09/09 01:44:48;;;;;;;12.02;8.13;;;;;;;;;;4933320;29;20307;-86
2021/09/09 01:47:14;;;;;;;10.97;8.43;;;;;;;;;;4932984;29;20019;-86
2021/09/09 01:49:39;;;;;;;14.55;8.77;;;;;;;;;;4927704;29;20122;-86
2021/09/09 01:52:05;;;;;;;12.67;8.97;;;;;;;;;;4931838;29;20024;-85
2021/09/09 01:54:30;;;;;;;13.73;9.02;;;;;;;;;;4931516;29;20283;-85
2021/09/09 01:56:55;;;;;;;17.90;9.30;;;;;;;;;;4929958;29;20020;-84
2021/09/09 01:59:20;;;;;;;13.30;8.73;;;;;;;;;;4929685;29;20331;-85
2021/09/09 02:01:45;;;;;;;13.63;9.13;;;;;;;;;;4932221;29;20817;-85
2021/09/09 02:04:11;;;;;;;12.52;9.02;;;;;;;;;;4932982;29;20122;-85
2021/09/09 02:06:36;;;;;;;14.32;9.10;;;;;;;;;;4929490;29;20058;-85
2021/09/09 02:09:02;;;;;;;12.27;7.85;;;;;;;;;;4933237;29;20384;-85
2021/09/09 02:11:27;;;;;;;12.52;8.85;;;;;;;;;;4929763;29;20035;-85
2021/09/09 02:13:53;;;;;;;12.87;8.73;;;;;;;;;;4924627;29;20083;-85
2021/09/09 02:16:18;;;;;;;13.03;8.50;;;;;;;;;;4931454;29;20705;-84
2021/09/09 02:18:43;;;;;;;13.30;9.73;;;;;;;;;;4933042;29;20478;-84
2021/09/09 02:21:09;;;;;;;13.27;9.65;;;;;;;;;;4914408;29;20119;-84
2021/09/09 02:23:34;;;;;;;11.57;8.68;;;;;;;;;;4931721;29;20066;-84
2021/09/09 02:25:59;;;;;;;16.65;9.43;;;;;;;;;;4926893;29;20016;-84
2021/09/09 02:28:25;;;;;;;14.17;9.20;;;;;;;;;;4925347;29;20027;-85
2021/09/09 02:30:50;;;;;;;16.03;9.10;;;;;;;;;;4927795;29;20031;-84
2021/09/09 02:33:15;;;;;;;11.27;9.38;;;;;;;;;;4923991;29;20344;-84
2021/09/09 02:35:41;;;;;;;12.30;8.90;;;;;;;;;;4926695;29;20419;-83
2021/09/09 02:38:06;;;;;;;14.87;9.63;;;;;;;;;;4928589;29;20079;-85
2021/09/09 02:40:31;;;;;;;13.45;9.43;;;;;;;;;;4928349;29;20263;-84
2021/09/09 02:42:56;;;;;;;14.82;8.55;;;;;;;;;;4928435;29;20038;-84
2021/09/09 02:45:23;;;;;;;11.85;7.63;;;;;;;;;;4931200;29;20470;-85
2021/09/09 02:47:49;;;;;;;12.55;8.18;;;;;;;;;;4930532;29;20238;-85
2021/09/09 02:50:14;;;;;;;11.88;8.45;;;;;;;;;;4928880;29;20030;-85
2021/09/09 02:52:39;;;;;;;12.17;8.07;;;;;;;;;;4927696;29;20032;-85
2021/09/09 02:55:05;;;;;;;14.60;9.55;;;;;;;;;;4930430;29;20272;-86
2021/09/09 02:57:30;;;;;;;10.93;8.60;;;;;;;;;;4932045;29;20023;-84
2021/09/09 02:59:55;;;;;;;11.90;8.45;;;;;;;;;;4930672;29;20019;-85
2021/09/09 03:02:21;;;;;;;15.48;8.77;;;;;;;;;;4927150;29;20020;-85
2021/09/09 03:04:46;;;;;;;10.10;8.63;;;;;;;;;;4928233;29;20042;-86
2021/09/09 03:07:11;;;;;;;11.60;7.03;;;;;;;;;;4932587;29;20114;-84
2021/09/09 03:09:37;;;;;;;14.43;9.03;;;;;;;;;;4931258;29;20327;-85
2021/09/09 03:12:02;;;;;;;12.43;8.20;;;;;;;;;;4931388;29;20054;-85
2021/09/09 03:14:28;;;;;;;10.48;7.72;;;;;;;;;;4927897;29;20038;-85
2021/09/09 03:16:53;;;;;;;12.40;9.27;;;;;;;;;;4927920;29;20072;-87
2021/09/09 03:19:18;;;;;;;13.43;8.57;;;;;;;;;;4930164;29;20031;-84
2021/09/09 03:21:44;;;;;;;12.90;9.27;;;;;;;;;;4926942;29;20260;-84
2021/09/09 03:24:09;;;;;;;12.02;9.02;;;;;;;;;;4931346;29;20055;-84
2021/09/09 03:26:35;;;;;;;11.95;8.10;;;;;;;;;;4930045;29;20110;-88
2021/09/09 03:29:00;;;;;;;13.57;8.20;;;;;;;;;;4930276;29;20050;-86
2021/09/09 03:31:25;;;;;;;13.50;8.77;;;;;;;;;;4930995;29;20471;-86
2021/09/09 03:33:51;;;;;;;11.43;7.93;;;;;;;;;;4923995;29;20109;-86
2021/09/09 03:36:16;;;;;;;11.57;8.53;;;;;;;;;;4926654;29;20486;-85
2021/09/09 03:38:41;;;;;;;16.33;8.73;;;;;;;;;;4931768;29;20024;-84
2021/09/09 03:41:08;;;;;;;12.95;8.30;;;;;;;;;;4931691;29;20255;-85
2021/09/09 03:43:33;;;;;;;12.88;9.05;;;;;;;;;;4925629;29;20069;-86
2021/09/09 03:45:59;;;;;;;12.57;8.60;;;;;;;;;;4928637;29;20490;-86
2021/09/09 03:48:24;;;;;;;13.82;8.20;;;;;;;;;;4927012;29;20091;-86
2021/09/09 03:50:49;;;;;;;11.82;8.32;;;;;;;;;;4930749;29;20030;-87
2021/09/09 03:53:15;;;;;;;11.03;8.17;;;;;;;;;;4929497;29;20106;-86
2021/09/09 03:55:40;;;;;;;13.83;9.23;;;;;;;;;;4931770;29;20046;-85
2021/09/09 03:58:05;;;;;;;12.05;8.88;;;;;;;;;;4932005;29;20020;-87
2021/09/09 04:00:31;;;;;;;14.20;10.15;;;;;;;;;;4927988;29;20541;-87
2021/09/09 04:02:57;;;;;;;11.85;8.60;;;;;;;;;;4929392;29;20032;-86
2021/09/09 04:05:22;;;;;;;11.20;8.40;;;;;;;;;;4931562;29;20111;-85
2021/09/09 04:07:48;;;;;;;11.00;8.68;;;;;;;;;;4934516;29;20039;-86
2021/09/09 04:10:13;;;;;;;14.32;8.98;;;;;;;;;;4926407;29;20031;-87
2021/09/09 04:12:41;;;;;;;12.38;8.90;;;;;;;;;;4934960;29;20043;-86
2021/09/09 04:15:07;;;;;;;11.60;8.48;;;;;;;;;;4933621;29;20371;-86
2021/09/09 04:17:33;;;;;;;14.57;9.45;;;;;;;;;;4930049;29;20020;-86
2021/09/09 04:19:59;;;;;;;12.07;9.40;;;;;;;;;;4935589;29;20046;-85
2021/09/09 04:22:25;;;;;;;10.32;7.82;;;;;;;;;;4934754;29;20020;-85
2021/09/09 04:24:50;;;;;;;13.38;9.00;;;;;;;;;;4934919;29;20035;-85
2021/09/09 04:27:15;;;;;;;14.77;8.67;;;;;;;;;;4935351;29;20019;-85
2021/09/09 04:29:41;;;;;;;11.98;7.70;;;;;;;;;;4930529;29;20263;-86
2021/09/09 04:32:06;;;;;;;11.35;9.05;;;;;;;;;;4932859;29;20031;-84
2021/09/09 04:34:32;;;;;;;12.68;8.95;;;;;;;;;;4930154;29;20034;-86
2021/09/09 04:36:57;;;;;;;13.77;8.63;;;;;;;;;;4933056;29;20075;-86
2021/09/09 04:39:22;;;;;;;14.50;9.53;;;;;;;;;;4931502;29;20267;-86
2021/09/09 04:41:47;;;;;;;12.35;8.43;;;;;;;;;;4936596;29;20263;-87
2021/09/09 04:44:13;;;;;;;10.88;8.15;;;;;;;;;;4934654;29;20487;-86
2021/09/09 04:46:38;;;;;;;13.48;9.23;;;;;;;;;;4936049;29;20083;-87
2021/09/09 04:49:03;;;;;;;12.10;9.37;;;;;;;;;;4932572;29;20019;-87
2021/09/09 04:51:29;;;;;;;10.82;7.95;;;;;;;;;;4935861;29;20849;-86
2021/09/09 04:53:54;;;;;;;16.25;10.60;;;;;;;;;;4935140;29;20386;-86
2021/09/09 04:56:19;;;;;;;13.32;8.73;;;;;;;;;;4933497;29;20097;-85
2021/09/09 04:58:44;;;;;;;12.40;8.67;;;;;;;;;;4935760;29;20020;-86
2021/09/09 05:01:10;;;;;;;13.70;9.63;;;;;;;;;;4929251;29;20035;-84
2021/09/09 05:03:35;;;;;;;16.13;9.23;;;;;;;;;;4931740;29;20279;-85
2021/09/09 05:06:00;;;;;;;13.10;9.00;;;;;;;;;;4928830;29;20030;-85
2021/09/09 05:08:25;;;;;;;15.38;9.00;;;;;;;;;;4934398;29;20474;-84
2021/09/09 05:10:51;;;;;;;12.90;8.37;;;;;;;;;;4914090;29;20167;-85
2021/09/09 05:13:16;;;;;;;14.17;9.57;;;;;;;;;;4923139;29;20316;-84
2021/09/09 05:15:41;;;;;;;11.52;9.10;;;;;;;;;;4938589;29;20070;-84
2021/09/09 05:18:07;;;;;;;12.10;9.47;;;;;;;;;;4934017;29;20031;-85
2021/09/09 05:20:32;;;;;;;13.93;9.50;;;;;;;;;;4930719;29;20020;-86
2021/09/09 05:22:57;;;;;;;15.90;9.27;;;;;;;;;;4931198;29;20276;-86
2021/09/09 05:25:22;;;;;;;12.98;8.80;;;;;;;;;;4930518;29;20746;-86
2021/09/09 05:27:48;;;;;;;12.80;9.30;;;;;;;;;;4937198;29;20372;-86
2021/09/09 05:30:13;;;;;;;12.75;9.45;;;;;;;;;;4934506;29;20435;-87
2021/09/09 05:32:39;;;;;;;13.85;9.57;;;;;;;;;;4932646;29;20045;-85
2021/09/09 05:35:04;;;;;;;12.40;8.98;;;;;;;;;;4933574;29;20024;-86
2021/09/09 05:37:30;;;;;;;11.73;9.02;;;;;;;;;;4932865;29;20080;-85
2021/09/09 05:39:55;;;;;;;14.50;9.75;;;;;;;;;;4930700;29;20103;-89
2021/09/09 05:42:20;;;;;;;10.87;8.37;;;;;;;;;;4935263;29;20042;-88
2021/09/09 05:44:46;;;;;;;17.27;9.00;;;;;;;;;;4936075;29;20264;-86
2021/09/09 05:47:12;;;;;;;13.02;9.93;;;;;;;;;;4927634;29;20024;-85
2021/09/09 05:49:37;;;;;;;16.50;10.45;;;;;;;;;;4922262;29;20026;-85
2021/09/09 05:52:04;;;;;;;39.22;32.08;;;;;;;;;;4921661;29;20083;-85
2021/09/09 05:54:29;;;;;;;13.52;11.02;;;;;;;;;;4937232;29;20026;-86
2021/09/09 05:56:54;;;;;;;14.30;10.07;;;;;;;;;;4938238;29;20498;-87
2021/09/09 05:59:20;;;;;;;13.70;10.27;;;;;;;;;;4930451;29;20024;-89
2021/09/09 06:01:46;;;;;;;14.00;9.43;;;;;;;;;;4936771;29;20040;-89
2021/09/09 06:04:14;;;;;;;14.18;9.40;;;;;;;;;;4937524;29;20461;-85
2021/09/09 06:06:39;;;;;;;13.05;9.27;;;;;;;;;;4912875;29;20038;-83
2021/09/09 06:09:19;;;;;;;14.33;8.30;;;;;;;;;;4910607;29;20020;-86
2021/09/09 06:12:03;;;;;;;15.20;9.57;;;;;;;;;;4906889;29;20290;-83
2021/09/09 06:14:29;;;;;;;15.05;9.52;;;;;;;;;;4931488;29;20122;-82
2021/09/09 06:16:54;;;;;;;16.65;8.85;;;;;;;;;;4925724;29;20016;-83
2021/09/09 06:19:20;;;;;;;19.40;9.85;;;;;;;;;;4931250;29;20028;-83
2021/09/09 06:21:45;;;;;;;15.30;9.15;;;;;;;;;;4932946;29;20086;-82
2021/09/09 06:24:10;;;;;;;10.70;8.27;;;;;;;;;;4934984;29;20050;-81
2021/09/09 06:26:36;;;;;;;13.95;9.20;;;;;;;;;;4930114;29;20024;-81
2021/09/09 06:29:01;;;;;;;12.23;8.10;;;;;;;;;;4928222;29;20132;-81
2021/09/09 06:31:26;;;;;;;13.40;8.83;;;;;;;;;;4926441;29;20026;-83
2021/09/09 06:33:52;;;;;;;13.33;9.40;;;;;;;;;;4932892;29;20028;-81
2021/09/09 06:36:17;;;;;;;19.98;16.77;;;;;;;;;;4929944;29;20259;-81
2021/09/09 06:38:43;;;;;;;15.90;11.30;;;;;;;;;;4931886;29;20651;-82
2021/09/09 06:41:08;;;;;;;18.20;9.48;;;;;;;;;;4931166;29;20015;-82
2021/09/09 06:43:33;;;;;;;11.98;8.70;;;;;;;;;;4923746;29;20104;-82
2021/09/09 06:45:59;;;;;;;19.87;8.67;;;;;;;;;;4932047;29;20028;-81
2021/09/09 06:48:24;;;;;;;15.10;8.82;;;;;;;;;;4931141;29;20091;-81
2021/09/09 06:50:49;;;;;;;16.73;8.83;;;;;;;;;;4931803;29;20469;-81
2021/09/09 06:53:15;;;;;;;12.13;8.38;;;;;;;;;;4925934;29;20034;-81
2021/09/09 06:55:40;;;;;;;15.77;9.20;;;;;;;;;;4926469;29;20020;-81
2021/09/09 06:58:06;;;;;;;13.52;8.88;;;;;;;;;;4929930;29;20012;-82
2021/09/09 07:00:31;;;;;;;15.07;10.15;;;;;;;;;;4928175;29;20096;-83
2021/09/09 07:02:57;;;;;;;11.93;7.15;;;;;;;;;;4928036;29;20059;-79
2021/09/09 07:05:22;;;;;;;13.73;8.13;;;;;;;;;;4930780;29;20744;-81
2021/09/09 07:07:48;;;;;;;9.68;6.90;;;;;;;;;;4908972;29;20032;-82
2021/09/09 07:10:18;;;;;;;15.38;7.97;;;;;;;;;;4925144;29;20471;-81
2021/09/09 07:12:43;;;;;;;16.13;14.35;;;;;;;;;;4926046;29;20727;-80
2021/09/09 07:15:09;;;;;;;24.00;18.27;;;;;;;;;;4927066;29;20027;-80
2021/09/09 07:17:35;;;;;;;19.70;16.42;;;;;;;;;;4927471;29;20063;-79
2021/09/09 07:20:01;;;;;;;11.70;9.13;;;;;;;;;;4922894;29;20585;-80
2021/09/09 07:22:27;;;;;;;12.25;8.45;;;;;;;;;;4922191;29;20039;-80
2021/09/09 07:24:52;;;;;;;12.53;7.87;;;;;;;;;;4928455;29;20026;-79
2021/09/09 07:27:17;;;;;;;10.48;8.10;;;;;;;;;;4927171;29;20087;-80
2021/09/09 07:29:42;;;;;;;10.47;7.50;;;;;;;;;;4923994;29;20020;-81
2021/09/09 07:32:08;;;;;;;13.23;7.70;;;;;;;;;;4922825;29;20020;-80
2021/09/09 07:34:33;;;;;;;13.20;8.57;;;;;;;;;;4928132;29;20039;-81
2021/09/09 07:36:58;;;;;;;9.10;7.80;;;;;;;;;;4929789;29;20371;-81
2021/09/09 07:39:24;;;;;;;10.00;7.45;;;;;;;;;;4930809;29;20034;-80
2021/09/09 07:41:49;;;;;;;13.37;8.17;;;;;;;;;;4929539;29;20055;-81
2021/09/09 07:44:14;;;;;;;10.23;7.73;;;;;;;;;;4925270;29;20020;-81
2021/09/09 07:46:49;;;;;;;12.18;7.55;;;;;;;;;;4927931;29;20106;-81
2021/09/09 07:49:15;;;;;;;8.70;6.90;;;;;;;;;;4927094;29;20391;-80
2021/09/09 07:51:42;;;;;;;15.85;10.50;;;;;;;;;;4928465;29;20588;-81
2021/09/09 07:54:07;;;;;;;19.02;16.55;;;;;;;;;;4923656;29;20074;-81
2021/09/09 07:56:32;;;;;;;15.00;10.00;;;;;;;;;;4929809;29;20047;-80
2021/09/09 07:58:57;;;;;;;9.77;7.47;;;;;;;;;;4923917;29;20047;-82
2021/09/09 08:01:23;;;;;;;9.10;6.60;;;;;;;;;;4920672;29;20023;-82
2021/09/09 08:03:48;;;;;;;9.50;6.87;;;;;;;;;;4928401;29;20646;-81
2021/09/09 08:06:14;;;;;;;8.55;6.70;;;;;;;;;;4922649;29;20023;-81
2021/09/09 08:08:39;;;;;;;9.57;7.50;;;;;;;;;;4929652;29;20027;-82
2021/09/09 08:11:05;;;;;;;11.85;7.00;;;;;;;;;;4920782;29;20040;-80
2021/09/09 08:13:30;;;;;;;10.52;7.07;;;;;;;;;;4928323;29;20615;-80
2021/09/09 08:15:55;;;;;;;8.90;6.47;;;;;;;;;;4918081;29;20119;-81
2021/09/09 08:18:21;;;;;;;9.32;6.70;;;;;;;;;;4927234;29;20505;-81
2021/09/09 08:20:46;;;;;;;12.67;7.50;;;;;;;;;;4928999;29;20047;-80
2021/09/09 08:23:11;;;;;;;10.50;7.07;;;;;;;;;;4929086;29;20025;-80
2021/09/09 08:25:36;;;;;;;7.78;6.35;;;;;;;;;;4919265;29;20036;-80
2021/09/09 08:28:02;;;;;;;8.02;6.65;;;;;;;;;;4925712;29;20039;-80
2021/09/09 08:30:27;;;;;;;13.17;7.30;;;;;;;;;;4925840;29;20030;-82
2021/09/09 08:32:53;;;;;;;11.80;7.47;;;;;;;;;;4927912;29;20745;-81
2021/09/09 08:35:18;;;;;;;9.82;6.82;;;;;;;;;;4934675;29;20024;-84
2021/09/09 08:37:43;;;;;;;7.53;6.25;;;;;;;;;;4939760;29;20166;-84
2021/09/09 08:40:10;;;;;;;9.10;6.22;;;;;;;;;;4936937;29;20418;-83
2021/09/09 08:42:42;;;;;;;8.70;6.07;;;;;;;;;;4928472;29;20384;-80
2021/09/09 08:45:07;;;;;;;9.88;6.47;;;;;;;;;;4927652;29;20024;-80
2021/09/09 08:47:36;;;;;;;8.10;6.38;;;;;;;;;;4927621;29;20023;-80
2021/09/09 08:50:02;;;;;;;7.78;6.55;;;;;;;;;;4926675;29;20720;-80
2021/09/09 08:52:30;;;;;;;9.57;6.80;;;;;;;;;;4927198;29;20032;-83
2021/09/09 08:54:59;;;;;;;10.63;7.75;;;;;;;;;;4923973;29;20383;-82
2021/09/09 08:57:24;;;;;;;21.42;17.75;;;;;;;;;;4912289;29;20023;-81
2021/09/09 08:59:49;;;;;;;10.70;6.38;;;;;;;;;;4930411;29;20016;-82
2021/09/09 09:02:14;;;;;;;7.80;6.53;;;;;;;;;;4926122;29;20028;-81
2021/09/09 09:04:40;;;;;;;8.83;5.73;;;;;;;;;;4932701;29;20107;-81
2021/09/09 09:07:06;;;;;;;12.25;6.03;;;;;;;;;;4931113;29;20482;-81
2021/09/09 09:09:38;;;;;;;12.07;6.38;;;;;;;;;;4925053;29;20378;-81
2021/09/09 09:12:05;;;;;;;8.75;7.35;;;;;;;;;;4933013;29;20394;-82
2021/09/09 09:14:31;;;;;;;9.90;6.60;;;;;;;;;;4929992;29;20028;-81
2021/09/09 09:16:58;;;;;;;11.55;6.45;;;;;;;;;;4927613;29;20040;-83
2021/09/09 09:19:26;;;;;;;13.75;10.35;;;;;;;;;;4929197;29;20375;-83
2021/09/09 09:22:03;;;;;;;13.07;10.30;;;;;;;;;;4933748;29;20619;-83
2021/09/09 09:24:34;;;;;;;7.53;5.97;;;;;;;;;;4933035;29;20377;-82
2021/09/09 09:27:04;;;;;;;8.15;5.78;;;;;;;;;;4930843;29;20382;-81
2021/09/09 09:29:30;;;;;;;10.00;6.43;;;;;;;;;;4933062;29;20363;-77
2021/09/09 09:32:06;;;;;;;9.32;6.70;;;;;;;;;;4933780;29;20031;-79
2021/09/09 09:34:32;;;;;;;9.43;7.43;;;;;;;;;;4931925;29;20486;-78
2021/09/09 09:36:58;;;;;;;14.68;7.70;;;;;;;;;;4931696;29;20103;-82
2021/09/09 09:39:23;;;;;;;19.75;9.40;;;;;;;;;;4926340;29;20103;-82
2021/09/09 09:41:59;;;;;;;15.38;7.90;;;;;;;;;;4925837;29;20024;-78
2021/09/09 09:44:28;;;;;;;13.25;6.85;;;;;;;;;;4919612;29;20132;-78
2021/09/09 09:47:04;;;;;;;11.23;6.75;;;;;;;;;;4929674;29;20023;-81
2021/09/09 09:49:30;;;;;;;10.65;6.00;;;;;;;;;;4932523;29;20379;-79
2021/09/09 09:52:00;;;;;;;11.82;6.93;;;;;;;;;;4926237;29;20591;-80
2021/09/09 09:54:25;;;;;;;10.57;6.15;;;;;;;;;;4932524;29;20437;-80
2021/09/09 09:59:42;;;;;;;9.85;6.72;;;;;;;;;;4928141;29;20268;-79
2021/09/09 10:02:10;;;;;;;9.88;6.63;;;;;;;;;;4926014;29;20020;-79
2021/09/09 10:04:35;;;;;;;13.00;6.22;;;;;;;;;;4929037;29;20463;-80
2021/09/09 10:07:01;;;;;;;9.02;5.70;;;;;;;;;;4922581;29;20114;-79
2021/09/09 10:09:27;;;;;;;12.25;6.13;;;;;;;;;;4930683;29;20059;-79
2021/09/09 10:11:52;;;;;;;10.50;6.25;;;;;;;;;;4932116;29;20355;-79
2021/09/09 10:14:19;;;;;;;8.10;5.10;;;;;;;;;;4920182;29;20030;-79
2021/09/09 10:16:45;;;;;;;9.25;5.43;;;;;;;;;;4928664;29;20039;-79
2021/09/09 10:19:11;;;;;;;8.20;5.05;;;;;;;;;;4928624;29;20019;-78
2021/09/09 10:21:44;;;;;;;7.05;5.22;;;;;;;;;;4928593;29;20032;-78
2021/09/09 10:24:20;;;;;;;8.82;5.68;;;;;;;;;;4927914;29;20027;-79
2021/09/09 10:26:48;;;;;;;7.28;5.43;;;;;;;;;;4931811;29;20458;-79
2021/09/09 10:29:32;;;;;;;8.32;5.00;;;;;;;;;;4931408;29;20385;-79
2021/09/09 10:31:57;;;;;;;8.20;5.30;;;;;;;;;;4928653;29;20016;-80
2021/09/09 10:34:23;;;;;;;9.00;5.80;;;;;;;;;;4931316;29;20082;-79
2021/09/09 10:36:49;;;;;;;9.32;5.80;;;;;;;;;;4928477;29;20024;-79
2021/09/09 10:39:21;;;;;;;6.18;5.05;;;;;;;;;;4926274;29;20031;-77
2021/09/09 10:41:47;;;;;;;7.60;5.10;;;;;;;;;;4907731;29;20576;-78
2021/09/09 10:44:13;;;;;;;6.32;5.18;;;;;;;;;;4929811;29;20023;-79
2021/09/09 10:46:39;;;;;;;8.23;5.28;;;;;;;;;;4927600;29;20080;-79
2021/09/09 10:49:06;;;;;;;5.68;4.57;;;;;;;;;;4931516;29;20892;-79
2021/09/09 10:51:31;;;;;;;8.02;5.00;;;;;;;;;;4930736;29;20522;-78
2021/09/09 10:53:58;;;;;;;8.57;5.35;;;;;;;;;;4928406;29;20015;-79
2021/09/09 10:56:24;;;;;;;7.90;4.63;;;;;;;;;;4930989;29;20300;-79
2021/09/09 10:59:07;;;;;;;6.78;4.47;;;;;;;;;;4927006;29;20020;-78
2021/09/09 11:01:35;;;;;;;6.13;4.40;;;;;;;;;;4928092;29;20024;-80
2021/09/09 11:04:00;;;;;;;7.20;4.70;;;;;;;;;;4923679;29;20051;-82
2021/09/09 11:06:29;;;;;;;4.85;4.22;;;;;;;;;;4925224;29;20031;-79
2021/09/09 11:08:54;;;;;;;;;;;;;;;;;;4930336;29;20055;-80
2021/09/09 11:11:21;;;;;;;7.93;5.40;;;;;;;;;;4928149;29;19961;-79
2021/09/09 11:13:57;;;;;;;5.88;4.63;;;;;;;;;;4923269;29;20306;-81
2021/09/09 11:16:27;;;;;;;8.65;4.80;;;;;;;;;;4928072;29;20204;-80
2021/09/09 11:18:52;;;;;;;6.38;4.05;;;;;;;;;;4928272;29;20537;-81
2021/09/09 11:21:19;;;;;;;8.70;4.60;;;;;;;;;;4931445;29;20031;-81
2021/09/09 11:23:46;;;;;;;11.90;7.10;;;;;;;;;;4930046;29;20558;-82
2021/09/09 11:26:16;;;;;;;6.60;5.22;;;;;;;;;;4926977;29;20355;-82
2021/09/09 11:28:42;;;;;;;8.43;5.57;;;;;;;;;;4931925;29;20019;-80
2021/09/09 11:31:10;;;;;;;7.00;5.60;;;;;;;;;;4925351;29;20035;-80
2021/09/09 11:33:56;;;;;;;6.97;5.18;;;;;;;;;;4927286;29;20403;-77
2021/09/09 11:36:27;;;;;;;7.50;5.20;;;;;;;;;;4928251;29;20542;-77
2021/09/09 11:38:53;;;;;;;6.85;5.40;;;;;;;;;;4930944;29;20437;-78
2021/09/09 11:41:20;;;;;;;8.25;5.53;;;;;;;;;;4926123;29;20356;-78
2021/09/09 11:43:55;;;;;;;6.55;4.68;;;;;;;;;;4928995;29;20028;-78
2021/09/09 11:46:24;;;;;;;8.77;5.07;;;;;;;;;;4922952;29;20026;-78
2021/09/09 11:48:51;;;;;;;5.85;4.20;;;;;;;;;;4929611;29;20639;-78
2021/09/09 11:51:27;;;;;;;6.90;4.97;;;;;;;;;;4912046;29;20031;-80
2021/09/09 11:53:53;;;;;;;6.35;4.80;;;;;;;;;;4922519;29;20036;-81
2021/09/09 11:56:22;;;;;;;10.43;8.13;;;;;;;;;;4928394;29;20022;-79
2021/09/09 11:58:48;;;;;;;6.78;4.85;;;;;;;;;;4925051;29;20593;-82
2021/09/09 12:01:13;;;;;;;7.10;5.00;;;;;;;;;;4924582;29;20079;-80
2021/09/09 12:03:39;;;;;;;7.37;5.00;;;;;;;;;;4916830;29;20039;-77
2021/09/09 12:06:04;;;;;;;8.52;4.80;;;;;;;;;;4928950;29;20367;-80
2021/09/09 12:08:35;;;;;;;8.30;5.07;;;;;;;;;;4923134;29;20023;-79
2021/09/09 12:11:10;;;;;;;8.48;5.45;;;;;;;;;;4924236;29;20382;-77
2021/09/09 12:13:36;;;;;;;8.23;5.40;;;;;;;;;;4929686;29;20082;-79
2021/09/09 12:16:16;;;;;;;6.68;4.70;;;;;;;;;;4926732;29;20011;-78
2021/09/09 12:18:43;;;;;;;7.00;5.55;;;;;;;;;;4928621;29;20366;-78
2021/09/09 12:21:15;;;;;;;7.35;5.00;;;;;;;;;;4926927;29;20344;-77
2021/09/09 12:24:20;;;;;;;8.48;4.75;;;;;;;;;;4923595;29;20063;-78
2021/09/09 12:26:55;;;;;;;8.25;4.80;;;;;;;;;;4854306;29;20436;-78
2021/09/09 12:29:26;;;;;;;8.15;4.90;;;;;;;;;;4916441;29;20046;-78
2021/09/09 12:31:52;;;;;;;7.82;4.93;;;;;;;;;;4907227;29;20414;-78
2021/09/09 12:34:18;;;;;;;8.85;5.32;;;;;;;;;;4932069;29;20027;-78
2021/09/09 12:36:48;;;;;;;6.85;4.88;;;;;;;;;;4931167;29;20431;-77
2021/09/09 12:39:14;;;;;;;9.02;5.43;;;;;;;;;;4929295;29;20427;-79
2021/09/09 12:41:40;;;;;;;7.68;5.05;;;;;;;;;;4925422;29;20032;-77
2021/09/09 12:44:09;;;;;;;10.45;5.30;;;;;;;;;;4929231;29;20591;-81
2021/09/09 12:46:41;;;;;;;8.48;4.88;;;;;;;;;;4930696;29;20036;-81
2021/09/09 12:49:16;;;;;;;8.35;5.03;;;;;;;;;;4929649;29;20348;-83
2021/09/09 12:51:43;;;;;;;7.38;5.07;;;;;;;;;;4929029;29;20363;-77
2021/09/09 12:54:09;;;;;;;8.57;5.45;;;;;;;;;;4928099;29;20505;-79
2021/09/09 12:56:34;;;;;;;8.52;6.10;;;;;;;;;;4934198;29;20394;-79
2021/09/09 12:59:00;;;;;;;6.88;5.22;;;;;;;;;;4930952;29;20020;-80
2021/09/09 13:01:26;;;;;;;8.25;5.63;;;;;;;;;;4931256;29;20020;-78
2021/09/09 13:03:52;;;;;;;6.50;4.72;;;;;;;;;;4916238;29;20375;-80
2021/09/09 13:06:17;;;;;;;8.23;5.47;;;;;;;;;;4915858;29;20060;-78
2021/09/09 13:08:42;;;;;;;8.17;5.20;;;;;;;;;;4931827;29;20052;-78
2021/09/09 13:11:08;;;;;;;7.45;5.07;;;;;;;;;;4929501;29;20020;-80
2021/09/09 13:13:33;;;;;;;7.97;6.05;;;;;;;;;;4932224;29;20028;-81
2021/09/09 13:15:59;;;;;;;8.02;5.35;;;;;;;;;;4929684;29;20030;-81
2021/09/09 13:18:25;;;;;;;11.10;5.03;;;;;;;;;;4928898;29;20383;-83
2021/09/09 13:20:51;;;;;;;7.13;5.25;;;;;;;;;;4922018;29;20024;-81
2021/09/09 13:23:16;;;;;;;10.65;5.97;;;;;;;;;;4933811;29;20023;-84
2021/09/09 13:25:42;;;;;;;8.35;5.97;;;;;;;;;;4932673;29;20032;-83
2021/09/09 13:28:08;;;;;;;8.60;5.45;;;;;;;;;;4917165;29;20023;-82
2021/09/09 13:30:37;;;;;;;8.77;6.18;;;;;;;;;;4930700;29;20360;-83
2021/09/09 13:33:04;;;;;;;8.23;5.13;;;;;;;;;;4928107;29;20394;-84
2021/09/09 13:35:31;;;;;;;8.77;5.65;;;;;;;;;;4931941;29;20051;-84
2021/09/09 13:37:56;;;;;;;8.15;6.18;;;;;;;;;;4934661;29;20433;-87
2021/09/09 13:40:21;;;;;;;8.40;5.63;;;;;;;;;;4931121;29;20032;-88
2021/09/09 13:42:47;;;;;;;8.15;5.93;;;;;;;;;;4929065;29;20032;-77
2021/09/09 13:45:12;;;;;;;7.47;5.63;;;;;;;;;;4930521;29;20475;-78
2021/09/09 13:47:38;;;;;;;8.83;4.73;;;;;;;;;;4940009;29;20210;-78
2021/09/09 13:50:04;;;;;;;8.25;5.25;;;;;;;;;;4930591;29;20044;-79
2021/09/09 13:52:29;;;;;;;8.27;5.30;;;;;;;;;;4926914;29;20071;-80
2021/09/09 13:54:54;;;;;;;8.85;5.00;;;;;;;;;;4935381;29;20403;-79
2021/09/09 13:57:20;;;;;;;7.97;4.88;;;;;;;;;;4941070;29;20030;-80
2021/09/09 13:59:45;;;;;;;9.38;5.57;;;;;;;;;;4926004;29;20013;-80
2021/09/09 14:02:10;;;;;;;7.03;5.43;;;;;;;;;;4930646;29;20051;-79
2021/09/09 14:04:36;;;;;;;10.05;7.45;;;;;;;;;;4930044;29;20051;-80
2021/09/09 14:07:01;;;;;;;11.07;5.60;;;;;;;;;;4929509;29;20367;-80
2021/09/09 14:09:26;;;;;;;9.00;4.53;;;;;;;;;;4927323;29;20035;-80
2021/09/09 14:11:52;;;;;;;10.70;5.90;;;;;;;;;;4931745;29;20494;-79
2021/09/09 14:14:17;;;;;;;8.90;5.70;;;;;;;;;;4929394;29;20024;-78
2021/09/09 14:16:43;;;;;;;15.02;5.20;;;;;;;;;;4930656;29;20467;-78
2021/09/09 14:19:08;;;;;;;9.80;6.60;;;;;;;;;;4925518;29;20508;-78
2021/09/09 14:21:33;;;;;;;6.57;5.43;;;;;;;;;;4934888;29;20051;-78
2021/09/09 14:23:59;;;;;;;7.60;4.95;;;;;;;;;;4928281;29;20583;-79
2021/09/09 14:26:24;;;;;;;6.47;4.77;;;;;;;;;;4932789;29;20608;-78
2021/09/09 14:28:49;;;;;;;9.93;4.70;;;;;;;;;;4930141;29;20038;-77
2021/09/09 14:31:15;;;;;;;8.10;5.32;;;;;;;;;;4931046;29;20035;-78